createdAt,value
2024-01-15T00:02:18.775Z,1.73
2024-01-15T00:04:46.578Z,2.00
2024-01-15T00:07:14.563Z,2.50
2024-01-15T00:09:42.385Z,2.07
2024-01-15T00:12:10.265Z,2.57
2024-01-15T00:14:38.063Z,2.47
2024-01-15T00:17:05.869Z,2.30
2024-01-15T00:19:33.797Z,4.53
2024-01-15T00:22:01.691Z,4.93
2024-01-15T00:24:29.493Z,2.70
2024-01-15T00:26:57.349Z,16.13
2024-01-15T00:29:25.064Z,3.13
2024-01-15T00:31:52.888Z,3.77
2024-01-15T00:34:20.831Z,2.83
2024-01-15T00:36:48.704Z,2.17
2024-01-15T00:39:18.007Z,3.80
2024-01-15T00:41:45.830Z,3.00
2024-01-15T00:44:13.617Z,4.00
2024-01-15T00:46:47.216Z,4.03
2024-01-15T00:49:15.547Z,4.57
2024-01-15T00:51:43.520Z,4.67
2024-01-15T00:54:11.419Z,2.67
2024-01-15T00:56:39.169Z,2.60
2024-01-15T00:59:07.224Z,3.37
2024-01-15T01:01:35.233Z,2.90
2024-01-15T01:04:03.159Z,1.53
2024-01-15T01:06:34.100Z,2.13
2024-01-15T01:09:02.353Z,1.83
2024-01-15T01:11:30.282Z,2.43
2024-01-15T01:13:58.322Z,2.43
2024-01-15T01:16:26.038Z,1.80
2024-01-15T01:18:53.996Z,4.53
2024-01-15T01:21:21.951Z,2.90
2024-01-15T01:23:49.726Z,2.37
2024-01-15T01:26:18.432Z,2.60
2024-01-15T01:28:46.346Z,2.13
2024-01-15T01:31:14.278Z,2.27
2024-01-15T01:33:42.274Z,2.43
2024-01-15T01:36:13.290Z,2.40
2024-01-15T01:38:41.348Z,2.47
2024-01-15T01:41:09.092Z,2.40
2024-01-15T01:43:36.842Z,2.00
2024-01-15T01:46:04.698Z,2.23
2024-01-15T01:48:32.682Z,2.67
2024-01-15T01:51:01.355Z,2.80
2024-01-15T01:53:29.116Z,2.27
2024-01-15T01:55:57.267Z,2.43
2024-01-15T01:58:26.665Z,2.33
2024-01-15T02:00:54.821Z,2.57
2024-01-15T02:03:22.751Z,2.53
2024-01-15T02:05:51.009Z,1.77
2024-01-15T02:08:18.864Z,1.57
2024-01-15T02:10:46.612Z,2.63
2024-01-15T02:13:14.539Z,2.60
2024-01-15T02:15:42.454Z,2.63
2024-01-15T02:18:10.449Z,8.03
2024-01-15T02:20:38.320Z,3.27
2024-01-15T02:23:13.496Z,2.87
2024-01-15T02:25:46.340Z,2.40
2024-01-15T02:28:15.713Z,1.93
2024-01-15T02:30:44.057Z,2.10
2024-01-15T02:33:13.334Z,2.10
2024-01-15T02:35:41.678Z,1.60
2024-01-15T02:38:09.578Z,2.30
2024-01-15T02:40:37.408Z,2.37
2024-01-15T02:43:05.461Z,2.10
2024-01-15T02:45:34.372Z,1.83
2024-01-15T02:48:02.358Z,1.87
2024-01-15T02:50:30.713Z,1.40
2024-01-15T02:52:58.568Z,1.63
2024-01-15T02:55:26.418Z,2.40
2024-01-15T02:57:54.222Z,2.03
2024-01-15T03:00:22.026Z,1.77
2024-01-15T03:02:51.193Z,2.30
2024-01-15T03:05:21.300Z,1.47
2024-01-15T03:07:51.912Z,1.93
2024-01-15T03:10:23.784Z,2.30
2024-01-15T03:12:54.902Z,1.53
2024-01-15T03:15:24.038Z,5.37
2024-01-15T03:17:51.866Z,2.40
2024-01-15T03:20:19.615Z,1.83
2024-01-15T03:22:47.479Z,4.03
2024-01-15T03:25:15.243Z,2.37
2024-01-15T03:27:43.136Z,2.00
2024-01-15T03:30:11.546Z,2.70
2024-01-15T03:32:39.514Z,3.07
2024-01-15T03:35:07.881Z,2.00
2024-01-15T03:37:36.776Z,1.43
2024-01-15T03:40:05.866Z,1.33
2024-01-15T03:42:33.960Z,1.93
2024-01-15T03:45:01.720Z,2.43
2024-01-15T03:47:29.606Z,2.03
2024-01-15T03:49:57.428Z,1.93
2024-01-15T03:52:25.282Z,2.90
2024-01-15T03:54:53.167Z,3.37
2024-01-15T03:57:20.928Z,4.03
2024-01-15T03:59:48.736Z,3.20
2024-01-15T04:02:18.499Z,3.97
2024-01-15T04:04:46.571Z,2.90
2024-01-15T04:07:14.554Z,2.97
2024-01-15T04:09:42.414Z,3.40
2024-01-15T04:12:10.280Z,2.97
2024-01-15T04:14:38.079Z,3.33
2024-01-15T04:17:05.969Z,3.23
2024-01-15T04:19:33.915Z,3.07
2024-01-15T04:22:01.769Z,2.97
2024-01-15T04:24:29.586Z,2.77
2024-01-15T04:26:57.322Z,2.37
2024-01-15T04:29:25.103Z,2.93
2024-01-15T04:31:53.945Z,2.50
2024-01-15T04:34:21.822Z,1.83
2024-01-15T04:36:49.873Z,2.87
2024-01-15T04:39:17.746Z,1.93
2024-01-15T04:41:45.500Z,1.73
2024-01-15T04:44:13.333Z,2.87
2024-01-15T04:46:41.188Z,5.60
2024-01-15T04:49:09.198Z,2.70
2024-01-15T04:51:37.032Z,2.57
2024-01-15T04:54:05.335Z,31.83
2024-01-15T04:56:33.029Z,5.20
2024-01-15T04:59:00.847Z,6.07
2024-01-15T05:01:32.699Z,4.10
2024-01-15T05:04:00.843Z,3.10
2024-01-15T05:06:28.882Z,2.87
2024-01-15T05:08:56.702Z,3.10
2024-01-15T05:11:24.418Z,3.03
2024-01-15T05:13:52.223Z,2.13
2024-01-15T05:16:20.017Z,3.20
2024-01-15T05:18:47.983Z,4.73
2024-01-15T05:21:15.826Z,4.40
2024-01-15T05:23:43.616Z,3.87
2024-01-15T05:26:11.468Z,3.20
2024-01-15T05:28:39.255Z,3.93
2024-01-15T05:31:07.333Z,2.63
2024-01-15T05:33:35.266Z,4.00
2024-01-15T05:36:03.758Z,1.83
2024-01-15T05:38:31.621Z,2.43
2024-01-15T05:40:59.360Z,2.40
2024-01-15T05:43:27.113Z,3.33
2024-01-15T05:45:54.870Z,3.10
2024-01-15T05:48:22.880Z,6.13
2024-01-15T05:50:50.694Z,8.43
2024-01-15T05:53:18.473Z,7.97
2024-01-15T05:55:46.265Z,3.83
2024-01-15T05:58:14.080Z,3.23
2024-01-15T06:00:41.932Z,3.70
2024-01-15T06:03:09.811Z,3.30
2024-01-15T06:05:37.659Z,3.67
2024-01-15T06:08:05.572Z,4.77
2024-01-15T06:10:33.309Z,4.23
2024-01-15T06:13:01.047Z,4.70
2024-01-15T06:15:28.865Z,3.33
2024-01-15T06:17:56.722Z,2.53
2024-01-15T06:20:24.484Z,2.70
2024-01-15T06:22:52.264Z,4.63
2024-01-15T06:25:20.107Z,4.70
2024-01-15T06:27:47.974Z,4.13
2024-01-15T06:30:16.101Z,4.00
2024-01-15T06:32:44.051Z,3.73
2024-01-15T06:35:12.915Z,3.97
2024-01-15T06:37:40.795Z,4.40
2024-01-15T06:40:09.291Z,7.93
2024-01-15T06:42:37.142Z,5.90
2024-01-15T06:45:05.579Z,10.57
2024-01-15T06:47:33.846Z,12.70
2024-01-15T06:50:01.744Z,11.73
2024-01-15T06:52:29.669Z,11.90
2024-01-15T06:54:57.518Z,9.17
2024-01-15T06:57:25.361Z,8.37
2024-01-15T06:59:53.169Z,7.60
2024-01-15T07:02:20.943Z,6.13
2024-01-15T07:04:49.011Z,6.67
2024-01-15T07:07:16.765Z,5.97
2024-01-15T07:09:44.559Z,4.80
2024-01-15T07:12:12.368Z,6.33
2024-01-15T07:14:40.188Z,6.43
2024-01-15T07:17:07.904Z,10.80
2024-01-15T07:19:35.770Z,13.13
2024-01-15T07:22:03.993Z,13.57
2024-01-15T07:24:31.936Z,12.90
2024-01-15T07:26:59.692Z,10.57
2024-01-15T07:29:27.885Z,9.03
2024-01-15T07:31:56.080Z,5.83
2024-01-15T07:34:24.172Z,6.17
2024-01-15T07:36:52.051Z,5.83
2024-01-15T07:39:19.993Z,7.40
2024-01-15T07:41:47.855Z,10.30
2024-01-15T07:44:16.107Z,15.53
2024-01-15T07:46:50.174Z,9.67
2024-01-15T07:49:18.153Z,5.53
2024-01-15T07:51:46.069Z,4.90
2024-01-15T07:54:14.036Z,5.60
2024-01-15T07:57:05.904Z,4.13
2024-01-15T07:59:36.269Z,4.20
2024-01-15T08:02:04.652Z,4.27
2024-01-15T08:04:32.754Z,4.83
2024-01-15T08:07:02.097Z,6.40
2024-01-15T08:09:30.835Z,9.17
2024-01-15T08:11:58.685Z,15.13
2024-01-15T08:14:26.594Z,5.13
2024-01-15T08:16:54.306Z,5.53
2024-01-15T08:19:22.518Z,4.67
2024-01-15T08:21:50.725Z,5.33
2024-01-15T08:24:18.856Z,6.87
2024-01-15T08:26:46.689Z,9.80
2024-01-15T08:29:14.567Z,11.53
2024-01-15T08:31:42.549Z,6.47
2024-01-15T08:34:10.633Z,3.63
2024-01-15T08:36:38.531Z,7.47
2024-01-15T08:39:06.418Z,9.33
2024-01-15T08:41:34.441Z,6.63
2024-01-15T08:44:02.929Z,5.57
2024-01-15T08:46:30.687Z,5.80
2024-01-15T08:48:58.794Z,8.67
2024-01-15T08:51:26.702Z,11.93
2024-01-15T08:53:54.570Z,6.03
2024-01-15T08:56:22.322Z,3.90
2024-01-15T08:58:50.101Z,4.47
2024-01-15T09:01:17.944Z,4.13
2024-01-15T09:03:45.883Z,5.70
2024-01-15T09:06:13.818Z,6.43
2024-01-15T09:08:41.973Z,6.43
2024-01-15T09:11:09.729Z,7.07
2024-01-15T09:13:37.619Z,12.90
2024-01-15T09:16:05.637Z,8.87
2024-01-15T09:18:33.780Z,8.23
2024-01-15T09:21:01.612Z,5.93
2024-01-15T09:23:30.024Z,27.00
2024-01-15T09:25:57.933Z,8.43
2024-01-15T09:28:25.719Z,18.13
2024-01-15T09:30:53.741Z,9.47
2024-01-15T09:33:21.689Z,5.27
2024-01-15T09:35:49.498Z,3.30
2024-01-15T09:38:19.548Z,3.90
2024-01-15T09:40:47.365Z,8.23
2024-01-15T09:43:15.307Z,37.73
2024-01-15T09:45:43.963Z,5.40
2024-01-15T09:48:12.180Z,2.87
2024-01-15T09:50:39.940Z,6.03
2024-01-15T09:53:07.751Z,7.07
2024-01-15T09:55:35.826Z,3.07
2024-01-15T09:58:03.626Z,6.87
2024-01-15T10:00:34.277Z,4.87
2024-01-15T10:03:02.119Z,4.63
2024-01-15T10:05:30.030Z,36.00
2024-01-15T10:07:57.991Z,8.33
2024-01-15T10:10:25.754Z,16.70
2024-01-15T10:12:53.607Z,7.97
2024-01-15T10:15:24.749Z,3.57
2024-01-15T10:17:52.744Z,8.30
2024-01-15T10:20:20.610Z,10.77
2024-01-15T10:22:48.456Z,11.70
2024-01-15T10:25:16.265Z,7.53
2024-01-15T10:27:44.210Z,46.17
2024-01-15T10:30:13.168Z,23.70
2024-01-15T10:32:42.410Z,17.67
2024-01-15T10:35:10.287Z,41.23
2024-01-15T10:37:38.069Z,57.23
2024-01-15T10:40:06.547Z,31.13
2024-01-15T10:42:34.373Z,19.13
2024-01-15T10:45:02.298Z,30.33
2024-01-15T10:47:30.832Z,42.53
2024-01-15T10:49:58.826Z,20.60
2024-01-15T10:52:26.803Z,45.90
2024-01-15T10:54:54.625Z,8.70
2024-01-15T10:57:23.449Z,32.27
2024-01-15T10:59:51.268Z,21.53
2024-01-15T11:02:19.109Z,27.63
2024-01-15T11:04:46.999Z,39.37
2024-01-15T11:07:15.030Z,23.07
2024-01-15T11:09:42.918Z,22.47
2024-01-15T11:12:12.310Z,5.57
2024-01-15T11:14:46.599Z,9.50
2024-01-15T11:17:14.850Z,3.27
2024-01-15T11:19:42.776Z,3.10
2024-01-15T11:22:11.198Z,4.77
2024-01-15T11:24:40.415Z,2.67
2024-01-15T11:27:08.932Z,2.73
2024-01-15T11:29:37.918Z,2.90
2024-01-15T11:32:11.885Z,3.33
2024-01-15T11:35:05.008Z,2.37
2024-01-15T11:37:58.424Z,4.13
2024-01-15T11:40:35.439Z,2.50
2024-01-15T11:43:03.787Z,2.40
2024-01-15T11:45:32.179Z,2.53
2024-01-15T11:48:17.483Z,2.17
2024-01-15T11:50:51.159Z,2.17
2024-01-15T11:53:38.221Z,2.07
2024-01-15T11:56:09.383Z,1.70
2024-01-15T11:58:40.323Z,2.20
2024-01-15T12:01:08.189Z,2.70
2024-01-15T12:03:36.151Z,2.70
2024-01-15T12:06:07.320Z,2.53
2024-01-15T12:08:35.894Z,1.70
2024-01-15T12:11:12.155Z,3.53
2024-01-15T12:13:39.942Z,2.07
2024-01-15T12:16:07.941Z,2.40
2024-01-15T12:18:35.933Z,10.47
2024-01-15T12:21:08.321Z,3.20
2024-01-15T12:23:36.200Z,1.50
2024-01-15T12:26:04.138Z,2.13
2024-01-15T12:28:31.906Z,4.80
2024-01-15T12:31:01.606Z,3.37
2024-01-15T12:33:29.982Z,1.80
2024-01-15T12:35:57.825Z,3.00
2024-01-15T12:38:25.645Z,3.10
2024-01-15T12:40:53.385Z,15.97
2024-01-15T12:43:21.195Z,15.77
2024-01-15T12:45:49.056Z,8.57
2024-01-15T12:48:19.236Z,9.70
2024-01-15T12:50:48.580Z,4.40
2024-01-15T12:53:16.857Z,3.77
2024-01-15T12:55:44.617Z,3.50
2024-01-15T12:58:12.489Z,3.40
2024-01-15T13:00:40.289Z,2.77
2024-01-15T13:03:08.223Z,2.00
2024-01-15T13:05:37.812Z,1.50
2024-01-15T13:08:06.207Z,1.57
2024-01-15T13:10:33.990Z,2.23
2024-01-15T13:13:01.824Z,2.33
2024-01-15T13:15:29.767Z,2.00
2024-01-15T13:17:57.630Z,1.90
2024-01-15T13:20:25.512Z,2.20
2024-01-15T13:22:53.403Z,2.00
2024-01-15T13:25:21.756Z,2.60
2024-01-15T13:27:50.728Z,2.17
2024-01-15T13:30:18.672Z,2.73
2024-01-15T13:32:46.632Z,3.17
2024-01-15T13:35:14.875Z,3.10
2024-01-15T13:37:42.913Z,2.30
2024-01-15T13:40:17.386Z,2.30
2024-01-15T13:42:46.883Z,2.30
2024-01-15T13:45:15.791Z,2.83
2024-01-15T13:47:45.072Z,3.03
2024-01-15T13:50:13.186Z,2.20
2024-01-15T13:52:41.004Z,2.60
2024-01-15T13:55:10.486Z,6.23
2024-01-15T13:57:38.906Z,6.43
2024-01-15T14:00:12.456Z,11.73
2024-01-15T14:02:40.614Z,3.40
2024-01-15T14:05:08.608Z,2.60
2024-01-15T14:07:36.466Z,3.00
2024-01-15T14:10:05.121Z,4.03
2024-01-15T14:12:34.232Z,5.80
2024-01-15T14:15:06.649Z,6.87
2024-01-15T14:17:34.656Z,5.93
2024-01-15T14:20:02.670Z,9.43
2024-01-15T14:22:30.498Z,5.47
2024-01-15T14:24:58.408Z,5.97
2024-01-15T14:27:26.334Z,5.87
2024-01-15T14:29:54.113Z,6.13
2024-01-15T14:32:21.981Z,5.00
2024-01-15T14:34:50.617Z,4.50
2024-01-15T14:37:18.547Z,7.97
2024-01-15T14:39:46.326Z,13.73
2024-01-15T14:42:14.128Z,7.37
2024-01-15T14:44:42.160Z,7.33
2024-01-15T14:47:10.084Z,4.20
2024-01-15T14:49:38.023Z,3.53
2024-01-15T14:52:06.191Z,2.50
2024-01-15T14:54:34.098Z,2.63
2024-01-15T14:57:02.504Z,3.00
2024-01-15T14:59:30.897Z,3.23
2024-01-15T15:01:58.708Z,2.70
2024-01-15T15:04:26.478Z,4.77
2024-01-15T15:06:54.543Z,3.93
2024-01-15T15:09:22.340Z,2.90
2024-01-15T15:11:50.082Z,2.60
2024-01-15T15:14:18.006Z,2.70
2024-01-15T15:16:47.605Z,2.93
2024-01-15T15:19:15.548Z,2.60
2024-01-15T15:21:43.431Z,2.47
2024-01-15T15:24:11.220Z,6.23
2024-01-15T15:26:38.991Z,3.27
2024-01-15T15:29:06.798Z,2.67
2024-01-15T15:31:34.526Z,3.10
2024-01-15T15:34:02.678Z,2.43
2024-01-15T15:36:30.643Z,2.90
2024-01-15T15:38:59.748Z,4.03
2024-01-15T15:41:29.113Z,3.27
2024-01-15T15:43:57.125Z,7.20
2024-01-15T15:46:24.918Z,26.63
2024-01-15T15:48:52.734Z,13.17
2024-01-15T15:51:20.563Z,19.63
2024-01-15T15:53:48.437Z,18.00
2024-01-15T15:56:16.210Z,16.73
2024-01-15T15:58:44.027Z,24.03
2024-01-15T16:01:11.826Z,19.90
2024-01-15T16:03:39.720Z,45.33
2024-01-15T16:06:07.790Z,34.90
2024-01-15T16:08:35.600Z,20.10
2024-01-15T16:11:03.491Z,31.43
2024-01-15T16:13:31.345Z,39.80
2024-01-15T16:23:08.973Z,32.27
2024-01-15T16:23:22.214Z,16.13
2024-01-15T16:23:37.170Z,10.00
2024-01-15T16:24:33.773Z,17.80
2024-01-15T16:29:41.854Z,8.80
2024-01-15T16:32:09.734Z,9.33
2024-01-15T16:34:38.818Z,6.73
2024-01-15T16:37:07.649Z,7.07
2024-01-15T16:39:35.954Z,12.70
2024-01-15T16:42:03.918Z,20.67
2024-01-15T16:44:31.828Z,14.20
2024-01-15T16:47:05.013Z,9.77
2024-01-15T16:49:34.999Z,5.93
2024-01-15T16:52:06.677Z,13.07
2024-01-15T16:54:36.400Z,7.80
2024-01-15T16:57:04.492Z,8.57
2024-01-15T16:59:32.411Z,13.90
2024-01-15T17:02:00.297Z,10.97
2024-01-15T17:04:28.185Z,14.50
2024-01-15T17:06:55.917Z,7.33
2024-01-15T17:09:23.685Z,10.53
2024-01-15T17:11:51.385Z,4.63
2024-01-15T17:14:19.311Z,12.47
2024-01-15T17:16:47.683Z,10.40
2024-01-15T17:19:15.666Z,9.23
2024-01-15T17:21:43.626Z,23.80
2024-01-15T17:24:11.446Z,11.20
2024-01-15T17:26:39.344Z,8.07
2024-01-15T17:29:07.205Z,8.63
2024-01-15T17:31:35.073Z,6.83
2024-01-15T17:34:02.960Z,7.80
2024-01-15T17:36:31.345Z,6.63
2024-01-15T17:38:59.095Z,4.13
2024-01-15T17:41:26.828Z,4.20
2024-01-15T17:43:54.692Z,4.27
2024-01-15T17:46:22.435Z,3.20
2024-01-15T17:48:50.313Z,4.43
2024-01-15T17:51:19.421Z,5.10
2024-01-15T17:53:48.048Z,4.30
2024-01-15T17:56:16.637Z,4.20
2024-01-15T17:58:44.730Z,4.00
2024-01-15T18:01:12.583Z,5.17
2024-01-15T18:03:40.772Z,6.20
2024-01-15T18:06:08.627Z,4.70
2024-01-15T18:08:36.558Z,6.83
2024-01-15T18:11:05.827Z,3.40
2024-01-15T18:13:33.625Z,3.47
2024-01-15T18:16:01.415Z,2.63
2024-01-15T18:18:29.350Z,8.10
2024-01-15T18:20:57.271Z,4.00
2024-01-15T18:23:25.519Z,1.90
2024-01-15T18:25:53.306Z,2.90
2024-01-15T18:28:22.014Z,1.60
2024-01-15T18:30:50.498Z,2.20
2024-01-15T18:33:18.802Z,1.07
2024-01-15T18:35:47.095Z,1.27
2024-01-15T18:38:15.028Z,1.30
2024-01-15T18:40:43.239Z,1.20
2024-01-15T18:43:11.093Z,1.07
2024-01-15T18:45:39.039Z,1.00
2024-01-15T18:48:07.736Z,2.33
2024-01-15T18:50:35.606Z,1.90
2024-01-15T18:53:04.298Z,2.50
2024-01-15T18:55:32.470Z,2.17
2024-01-15T18:58:01.010Z,2.17
2024-01-15T19:00:28.972Z,2.40
2024-01-15T19:02:59.294Z,2.50
2024-01-15T19:05:27.352Z,2.30
2024-01-15T19:07:55.225Z,2.13
2024-01-15T19:10:23.077Z,2.03
2024-01-15T19:12:50.867Z,1.87
2024-01-15T19:15:21.082Z,2.70
2024-01-15T19:17:50.104Z,1.60
2024-01-15T19:20:18.498Z,1.53
2024-01-15T19:22:48.026Z,2.20
2024-01-15T19:25:15.908Z,2.53
2024-01-15T19:27:45.709Z,4.90
2024-01-15T19:30:17.704Z,3.20
2024-01-15T19:32:46.055Z,2.20
2024-01-15T19:35:13.971Z,2.47
2024-01-15T19:37:41.813Z,2.57
2024-01-15T19:40:09.811Z,3.33
2024-01-15T19:42:38.215Z,2.20
2024-01-15T19:45:06.580Z,2.77
2024-01-15T19:47:34.509Z,1.77
2024-01-15T19:50:02.708Z,2.43
2024-01-15T19:52:30.767Z,2.97
2024-01-15T19:54:58.623Z,3.17
2024-01-15T19:57:26.406Z,3.37
2024-01-15T19:59:55.538Z,3.57
2024-01-15T20:02:23.331Z,3.30
2024-01-15T20:04:51.268Z,4.10
2024-01-15T20:07:19.006Z,4.07
2024-01-15T20:09:46.858Z,2.73
2024-01-15T20:12:14.649Z,2.87
2024-01-15T20:14:42.450Z,5.90
2024-01-15T20:17:10.245Z,4.33
2024-01-15T20:19:38.233Z,3.40
2024-01-15T20:22:06.028Z,3.50
2024-01-15T20:24:33.785Z,4.13
2024-01-15T20:27:01.674Z,5.23
2024-01-15T20:29:29.555Z,4.83
2024-01-15T20:31:57.687Z,3.23
2024-01-15T20:34:25.683Z,4.53
2024-01-15T20:36:53.599Z,4.27
2024-01-15T20:39:21.660Z,2.50
2024-01-15T20:41:50.409Z,2.80
2024-01-15T20:44:19.882Z,2.60
2024-01-15T20:46:48.597Z,2.33
2024-01-15T20:49:16.530Z,2.73
2024-01-15T20:51:44.337Z,2.63
2024-01-15T20:54:12.164Z,2.10
2024-01-15T20:56:43.386Z,2.60
2024-01-15T20:59:14.946Z,4.13
2024-01-15T21:01:42.774Z,3.03
2024-01-15T21:04:12.965Z,3.63
2024-01-15T21:06:41.007Z,3.77
2024-01-15T21:09:08.853Z,2.23
2024-01-15T21:11:36.651Z,4.30
2024-01-15T21:14:04.530Z,4.10
2024-01-15T21:16:32.262Z,4.53
2024-01-15T21:19:02.233Z,3.10
2024-01-15T21:21:30.178Z,2.90
2024-01-15T21:23:57.960Z,3.17
2024-01-15T21:26:25.831Z,3.70
2024-01-15T21:28:53.713Z,2.80
2024-01-15T21:31:21.498Z,2.57
2024-01-15T21:33:50.517Z,3.00
2024-01-15T21:36:18.389Z,2.87
2024-01-15T21:38:46.254Z,2.27
2024-01-15T21:41:14.262Z,2.33
2024-01-15T21:43:42.323Z,2.17
2024-01-15T21:46:10.125Z,2.30
2024-01-15T21:48:41.277Z,2.20
2024-01-15T21:51:11.254Z,2.07
2024-01-15T21:53:39.086Z,1.50
2024-01-15T21:56:07.031Z,1.37
2024-01-15T21:58:34.851Z,1.53
2024-01-15T22:01:02.947Z,1.67
2024-01-15T22:03:30.755Z,2.70
2024-01-15T22:05:58.606Z,1.67
2024-01-15T22:08:26.464Z,2.20
2024-01-15T22:10:54.285Z,1.67
2024-01-15T22:13:22.058Z,1.30
2024-01-15T22:15:49.842Z,1.93
2024-01-15T22:18:17.775Z,1.33
2024-01-15T22:20:45.755Z,1.40
2024-01-15T22:23:13.560Z,2.10
2024-01-15T22:25:41.452Z,1.83
2024-01-15T22:28:09.193Z,1.80
2024-01-15T22:30:37.036Z,1.60
2024-01-15T22:33:05.160Z,3.03
2024-01-15T22:35:33.392Z,5.50
2024-01-15T22:38:02.504Z,2.00
2024-01-15T22:40:30.474Z,1.60
2024-01-15T22:42:58.412Z,1.43
2024-01-15T22:45:26.252Z,1.30
2024-01-15T22:47:54.210Z,1.20
2024-01-15T22:50:22.236Z,1.63
2024-01-15T22:52:50.008Z,1.17
2024-01-15T22:55:17.787Z,1.73
2024-01-15T22:57:45.604Z,1.30
2024-01-15T23:00:19.778Z,1.33
2024-01-15T23:02:48.433Z,1.40
2024-01-15T23:05:17.223Z,0.70
2024-01-15T23:07:45.266Z,1.70
2024-01-15T23:10:15.170Z,1.17
2024-01-15T23:12:43.054Z,1.80
2024-01-15T23:15:10.811Z,1.20
2024-01-15T23:17:39.157Z,1.10
2024-01-15T23:20:08.620Z,1.67
2024-01-15T23:22:36.402Z,1.60
2024-01-15T23:25:04.494Z,1.43
2024-01-15T23:27:32.236Z,1.27
2024-01-15T23:29:59.973Z,1.23
2024-01-15T23:32:27.810Z,1.43
2024-01-15T23:34:55.598Z,1.90
2024-01-15T23:37:23.692Z,1.30
2024-01-15T23:39:54.433Z,1.80
2024-01-15T23:42:22.956Z,1.30
2024-01-15T23:44:50.870Z,1.40
2024-01-15T23:47:18.715Z,1.10
2024-01-15T23:49:46.553Z,1.37
2024-01-15T23:52:14.389Z,1.47
2024-01-15T23:54:42.207Z,1.20
2024-01-15T23:57:10.018Z,1.13
2024-01-15T23:59:39.179Z,1.40
